createdAt,value
2023-04-02T00:02:23.011Z,0.60
2023-04-02T00:05:34.372Z,0.52
2023-04-02T00:08:03.326Z,0.73
2023-04-02T00:10:36.899Z,0.55
2023-04-02T00:13:09.628Z,0.55
2023-04-02T00:15:44.414Z,0.60
2023-04-02T00:20:46.091Z,0.45
2023-04-02T00:23:14.533Z,0.60
2023-04-02T00:25:44.703Z,0.77
2023-04-02T00:28:20.507Z,0.50
2023-04-02T00:30:53.159Z,0.50
2023-04-02T00:33:23.524Z,0.52
2023-04-02T00:35:51.349Z,0.30
2023-04-02T00:38:32.751Z,0.40
2023-04-02T00:41:02.587Z,0.63
2023-04-02T00:43:32.098Z,0.30
2023-04-02T00:46:01.373Z,0.47
2023-04-02T00:48:40.632Z,0.30
2023-04-02T00:51:24.635Z,0.30
2023-04-02T00:53:54.062Z,0.40
2023-04-02T00:56:41.032Z,0.30
2023-04-02T00:59:21.347Z,0.40
2023-04-02T01:01:54.159Z,0.40
2023-04-02T01:04:35.106Z,0.40
2023-04-02T01:07:07.780Z,0.38
2023-04-02T01:09:40.181Z,0.50
2023-04-02T01:12:22.344Z,0.30
2023-04-02T01:15:14.432Z,0.45
2023-04-02T01:17:48.873Z,0.50
2023-04-02T01:20:18.720Z,0.70
2023-04-02T01:22:59.389Z,0.65
2023-04-02T01:25:48.475Z,0.50
2023-04-02T01:28:29.464Z,0.57
2023-04-02T01:30:57.747Z,0.95
2023-04-02T01:33:28.882Z,0.65
2023-04-02T01:36:22.438Z,0.85
2023-04-02T01:39:15.261Z,0.80
2023-04-02T01:42:07.056Z,0.68
2023-04-02T01:44:44.041Z,0.90
2023-04-02T01:47:12.718Z,0.68
2023-04-02T01:49:40.411Z,1.13
2023-04-02T01:52:07.558Z,0.70
2023-04-02T01:54:34.824Z,0.98
2023-04-02T01:57:01.634Z,1.08
2023-04-02T01:59:29.377Z,0.90
2023-04-02T02:02:00.624Z,1.00
2023-04-02T02:04:27.386Z,1.00
2023-04-02T02:06:54.375Z,0.98
2023-04-02T02:09:24.104Z,0.90
2023-04-02T02:11:51.446Z,0.93
2023-04-02T02:14:23.336Z,0.95
2023-04-02T02:16:50.534Z,1.13
2023-04-02T02:19:35.722Z,1.00
2023-04-02T02:24:46.921Z,1.30
2023-04-02T02:27:34.821Z,1.25
2023-04-02T02:30:11.087Z,1.20
2023-04-02T02:32:45.782Z,1.30
2023-04-02T02:37:42.866Z,0.90
2023-04-02T02:40:16.238Z,1.30
2023-04-02T02:42:49.279Z,1.20
2023-04-02T02:45:19.706Z,1.10
2023-04-02T02:47:47.313Z,1.13
2023-04-02T02:50:31.632Z,1.10
2023-04-02T02:53:00.126Z,1.00
2023-04-02T02:55:38.110Z,1.00
2023-04-02T02:58:13.373Z,1.20
2023-04-02T03:00:40.896Z,1.10
2023-04-02T03:03:11.374Z,1.00
2023-04-02T03:05:39.274Z,0.98
2023-04-02T03:08:09.547Z,1.02
2023-04-02T03:10:48.619Z,1.10
2023-04-02T03:13:19.844Z,1.00
2023-04-02T03:16:05.531Z,0.90
2023-04-02T03:18:52.281Z,0.95
2023-04-02T03:21:53.207Z,0.80
2023-04-02T03:24:42.225Z,0.70
2023-04-02T03:27:08.859Z,0.40
2023-04-02T03:29:40.276Z,0.60
2023-04-02T03:32:12.617Z,0.60
2023-04-02T03:34:46.697Z,0.60
2023-04-02T03:37:34.958Z,0.50
2023-04-02T03:40:07.492Z,0.40
2023-04-02T03:42:51.076Z,0.50
2023-04-02T03:45:27.332Z,0.60
2023-04-02T03:48:17.750Z,0.52
2023-04-02T03:50:55.767Z,0.40
2023-04-02T03:53:26.735Z,0.52
2023-04-02T03:55:53.650Z,0.52
2023-04-02T03:58:26.009Z,0.50
2023-04-02T04:01:17.447Z,0.50
2023-04-02T04:03:52.296Z,1.10
2023-04-02T04:06:28.304Z,0.60
2023-04-02T04:09:01.893Z,0.70
2023-04-02T04:11:35.383Z,0.60
2023-04-02T04:14:13.998Z,0.50
2023-04-02T04:17:15.542Z,0.60
2023-04-02T04:19:54.982Z,0.50
2023-04-02T04:22:30.428Z,0.43
2023-04-02T04:24:58.523Z,0.50
2023-04-02T04:27:34.661Z,0.60
2023-04-02T04:30:18.216Z,0.90
2023-04-02T04:32:58.169Z,1.40
2023-04-02T04:35:29.352Z,1.30
2023-04-02T04:38:03.760Z,0.63
2023-04-02T04:40:33.161Z,0.60
2023-04-02T04:43:03.469Z,0.68
2023-04-02T04:45:38.358Z,0.43
2023-04-02T04:48:10.871Z,0.40
2023-04-02T04:50:46.600Z,0.45
2023-04-02T04:53:21.082Z,0.50
2023-04-02T04:55:49.462Z,0.30
2023-04-02T04:58:22.690Z,0.30
2023-04-02T05:01:05.776Z,0.30
2023-04-02T05:04:13.083Z,0.40
2023-04-02T05:07:18.647Z,0.40
2023-04-02T05:09:52.192Z,0.40
2023-04-02T05:12:26.450Z,0.40
2023-04-02T05:15:12.725Z,0.60
2023-04-02T05:17:45.474Z,0.40
2023-04-02T05:20:36.218Z,0.40
2023-04-02T05:23:22.548Z,0.40
2023-04-02T05:26:03.497Z,0.40
2023-04-02T05:28:40.549Z,0.30
2023-04-02T05:31:26.252Z,0.40
2023-04-02T05:33:53.510Z,0.60
2023-04-02T05:36:23.577Z,0.30
2023-04-02T05:38:51.642Z,0.57
2023-04-02T05:41:28.473Z,0.50
2023-04-02T05:44:07.345Z,0.50
2023-04-02T05:46:44.970Z,0.30
2023-04-02T05:49:23.379Z,0.40
2023-04-02T05:51:52.681Z,0.20
2023-04-02T05:54:27.211Z,0.38
2023-04-02T05:57:03.027Z,0.57
2023-04-02T05:59:33.966Z,0.40
2023-04-02T06:02:17.367Z,0.45
2023-04-02T06:04:58.503Z,0.47
2023-04-02T06:07:29.906Z,0.40
2023-04-02T06:10:08.353Z,0.50
2023-04-02T06:12:55.484Z,0.47
2023-04-02T06:15:23.758Z,0.50
2023-04-02T06:18:17.801Z,0.70
2023-04-02T06:20:44.498Z,0.65
2023-04-02T06:23:21.399Z,0.70
2023-04-02T06:25:48.944Z,0.55
2023-04-02T06:28:18.589Z,0.50
2023-04-02T06:30:46.119Z,0.50
2023-04-02T06:33:13.424Z,0.60
2023-04-02T06:35:42.106Z,0.65
2023-04-02T06:38:17.801Z,0.50
2023-04-02T06:40:46.572Z,0.70
2023-04-02T06:43:36.160Z,0.70
2023-04-02T06:46:21.016Z,0.50
2023-04-02T06:48:48.689Z,0.52
2023-04-02T06:51:16.857Z,0.50
2023-04-02T06:53:47.213Z,0.50
2023-04-02T06:56:22.194Z,0.77
2023-04-02T06:58:49.140Z,0.70
2023-04-02T07:01:20.031Z,0.70
2023-04-02T07:03:46.826Z,0.50
2023-04-02T07:06:19.219Z,0.55
2023-04-02T07:08:46.483Z,0.57
2023-04-02T07:11:21.796Z,0.50
2023-04-02T07:13:49.936Z,0.60
2023-04-02T07:16:19.588Z,0.55
2023-04-02T07:18:47.449Z,0.50
2023-04-02T07:21:14.214Z,0.50
2023-04-02T07:23:41.869Z,0.50
2023-04-02T07:26:14.173Z,0.35
2023-04-02T07:28:41.096Z,0.40
2023-04-02T07:31:20.401Z,0.60
2023-04-02T07:33:47.470Z,0.60
2023-04-02T07:36:16.751Z,0.70
2023-04-02T07:38:43.566Z,0.40
2023-04-02T07:41:11.026Z,1.10
2023-04-02T07:43:38.244Z,0.57
2023-04-02T07:46:05.857Z,1.27
2023-04-02T07:48:32.594Z,1.73
2023-04-02T07:51:00.444Z,0.80
2023-04-02T07:53:31.474Z,0.20
2023-04-02T07:55:59.933Z,0.30
2023-04-02T07:58:27.129Z,0.32
2023-04-02T08:00:54.102Z,0.30
2023-04-02T08:03:21.028Z,0.28
2023-04-02T08:05:55.998Z,0.40
2023-04-02T08:08:23.984Z,0.40
2023-04-02T08:10:51.087Z,0.43
2023-04-02T08:13:19.903Z,0.30
2023-04-02T08:15:47.014Z,0.20
2023-04-02T08:18:14.263Z,0.25
2023-04-02T08:20:41.317Z,0.30
2023-04-02T08:23:15.518Z,0.10
2023-04-02T08:25:42.304Z,0.80
2023-04-02T08:28:09.101Z,0.50
2023-04-02T08:30:35.964Z,0.30
2023-04-02T08:33:03.199Z,0.77
2023-04-02T08:35:30.074Z,1.88
2023-04-02T08:37:56.800Z,0.70
2023-04-02T08:40:36.101Z,0.70
2023-04-02T08:43:37.502Z,0.65
2023-04-02T08:46:29.116Z,0.45
2023-04-02T08:49:01.297Z,1.33
2023-04-02T08:51:30.803Z,1.90
2023-04-02T08:54:03.770Z,2.03
2023-04-02T08:56:37.353Z,0.68
2023-04-02T08:59:15.417Z,1.00
2023-04-02T09:01:49.301Z,1.00
2023-04-02T09:04:22.096Z,0.40
2023-04-02T09:06:49.998Z,1.23
2023-04-02T09:09:16.828Z,38.15
2023-04-02T09:12:03.950Z,5.10
2023-04-02T09:14:43.726Z,4.88
2023-04-02T09:17:22.126Z,6.15
2023-04-02T09:20:17.081Z,1.95
2023-04-02T09:22:46.452Z,3.60
2023-04-02T09:25:17.766Z,2.28
2023-04-02T09:27:48.902Z,1.90
2023-04-02T09:30:51.517Z,2.20
2023-04-02T09:33:19.285Z,1.77
2023-04-02T09:35:54.465Z,1.75
2023-04-02T09:38:22.415Z,1.10
2023-04-02T09:40:58.468Z,1.00
2023-04-02T09:43:32.601Z,0.90
2023-04-02T09:46:05.691Z,1.30
2023-04-02T09:48:39.539Z,1.40
2023-04-02T09:51:16.336Z,1.53
2023-04-02T09:53:46.166Z,2.80
2023-04-02T09:56:21.642Z,2.72
2023-04-02T09:59:18.416Z,7.38
2023-04-02T10:01:56.040Z,1.55
2023-04-02T10:04:36.792Z,0.82
2023-04-02T10:07:06.444Z,16.92
2023-04-02T10:09:38.388Z,9.13
2023-04-02T10:12:07.851Z,21.52
2023-04-02T10:14:43.231Z,6.90
2023-04-02T10:17:20.256Z,1.40
2023-04-02T10:19:54.204Z,2.17
2023-04-02T10:22:22.804Z,5.00
2023-04-02T10:24:50.708Z,1.83
2023-04-02T10:27:44.595Z,1.00
2023-04-02T10:30:17.864Z,0.80
2023-04-02T10:33:05.672Z,1.10
2023-04-02T10:35:41.411Z,0.75
2023-04-02T10:38:23.294Z,3.50
2023-04-02T10:40:58.477Z,1.52
2023-04-02T10:43:51.720Z,0.55
2023-04-02T10:46:18.402Z,0.55
2023-04-02T10:48:58.438Z,0.60
2023-04-02T10:51:46.397Z,0.68
2023-04-02T10:54:22.065Z,2.33
2023-04-02T10:56:51.361Z,2.28
2023-04-02T10:59:31.309Z,3.88
2023-04-02T11:01:59.745Z,2.70
2023-04-02T11:04:33.276Z,1.63
2023-04-02T11:07:14.607Z,2.80
2023-04-02T11:09:44.212Z,2.30
2023-04-02T11:12:24.824Z,3.03
2023-04-02T11:14:52.588Z,1.50
2023-04-02T11:17:19.864Z,1.30
2023-04-02T11:19:46.775Z,1.13
2023-04-02T11:22:25.798Z,0.98
2023-04-02T11:24:54.621Z,1.10
2023-04-02T11:27:23.596Z,1.48
2023-04-02T11:30:08.016Z,0.80
2023-04-02T11:32:36.545Z,1.00
2023-04-02T11:35:28.078Z,0.80
2023-04-02T11:38:00.845Z,1.00
2023-04-02T11:40:44.591Z,0.70
2023-04-02T11:43:33.267Z,0.88
2023-04-02T11:46:03.186Z,0.82
2023-04-02T11:48:31.057Z,0.80
2023-04-02T11:50:58.410Z,1.27
2023-04-02T11:53:35.753Z,0.75
2023-04-02T11:56:06.734Z,1.30
2023-04-02T11:58:46.030Z,1.70
2023-04-02T12:01:15.922Z,1.10
2023-04-02T12:04:08.106Z,0.70
2023-04-02T12:07:06.135Z,0.55
2023-04-02T12:09:47.729Z,0.50
2023-04-02T12:12:18.743Z,0.60
2023-04-02T12:14:47.792Z,0.50
2023-04-02T12:17:32.732Z,0.70
2023-04-02T12:20:13.657Z,0.60
2023-04-02T12:22:47.668Z,0.60
2023-04-02T12:25:34.190Z,0.70
2023-04-02T12:28:33.782Z,0.70
2023-04-02T12:31:09.673Z,0.70
2023-04-02T12:33:37.966Z,0.40
2023-04-02T12:36:09.912Z,0.40
2023-04-02T12:38:44.157Z,0.35
2023-04-02T12:41:27.325Z,0.60
2023-04-02T12:44:06.432Z,0.90
2023-04-02T12:46:34.923Z,0.60
2023-04-02T12:49:07.330Z,0.60
2023-04-02T12:51:36.253Z,0.35
2023-04-02T12:54:03.156Z,0.90
2023-04-02T12:56:29.947Z,0.70
2023-04-02T12:59:00.814Z,1.60
2023-04-02T13:01:29.814Z,1.23
2023-04-02T13:04:02.946Z,1.20
2023-04-02T13:06:30.804Z,1.02
2023-04-02T13:08:58.122Z,0.80
2023-04-02T13:11:43.310Z,1.17
2023-04-02T13:14:18.655Z,1.50
2023-04-02T13:16:46.136Z,3.35
2023-04-02T13:19:27.094Z,4.53
2023-04-02T13:21:54.979Z,4.03
2023-04-02T13:24:32.454Z,2.17
2023-04-02T13:27:01.212Z,3.67
2023-04-02T13:29:33.108Z,4.15
2023-04-02T13:32:11.381Z,2.17
2023-04-02T13:34:38.115Z,1.38
2023-04-02T13:37:04.860Z,1.95
2023-04-02T13:39:31.656Z,1.70
2023-04-02T13:42:03.064Z,1.60
2023-04-02T13:44:31.863Z,2.15
2023-04-02T13:46:59.279Z,1.48
2023-04-02T13:49:26.529Z,1.70
2023-04-02T13:52:04.439Z,2.40
2023-04-02T13:54:37.298Z,1.67
2023-04-02T13:57:04.090Z,1.85
2023-04-02T13:59:30.832Z,1.58
2023-04-02T14:02:02.888Z,1.88
2023-04-02T14:04:33.793Z,1.58
2023-04-02T14:07:31.832Z,1.75
2023-04-02T14:10:10.549Z,2.30
2023-04-02T14:13:12.228Z,2.00
2023-04-02T14:15:58.874Z,2.10
2023-04-02T14:18:59.110Z,2.50
2023-04-02T14:21:40.848Z,2.80
2023-04-02T14:24:18.578Z,2.90
2023-04-02T14:27:04.377Z,2.47
2023-04-02T14:29:37.184Z,3.00
2023-04-02T14:32:12.499Z,2.92
2023-04-02T14:34:39.185Z,3.70
2023-04-02T14:37:13.972Z,3.10
2023-04-02T14:40:11.406Z,3.70
2023-04-02T14:42:52.209Z,4.05
2023-04-02T14:45:37.795Z,7.60
2023-04-02T14:48:19.440Z,15.80
2023-04-02T14:50:46.340Z,8.32
2023-04-02T14:53:37.387Z,5.03
2023-04-02T14:56:06.661Z,5.82
2023-04-02T14:58:43.563Z,8.68
2023-04-02T15:01:15.342Z,8.30
2023-04-02T15:04:03.859Z,5.25
2023-04-02T15:06:39.973Z,6.53
2023-04-02T15:09:38.981Z,7.60
2023-04-02T15:12:22.211Z,5.00
2023-04-02T15:14:53.809Z,3.72
2023-04-02T15:17:21.015Z,3.95
2023-04-02T15:19:47.885Z,6.90
2023-04-02T15:22:39.212Z,8.80
2023-04-02T15:25:34.154Z,10.02
2023-04-02T15:28:23.038Z,7.85
2023-04-02T15:30:54.527Z,4.53
2023-04-02T15:34:00.509Z,6.45
2023-04-02T15:37:19.650Z,13.98
2023-04-02T15:40:22.278Z,15.95
2023-04-02T15:43:05.927Z,10.48
2023-04-02T15:46:09.870Z,25.83
2023-04-02T15:48:48.051Z,28.63
2023-04-02T15:51:27.746Z,30.60
2023-04-02T15:54:22.269Z,27.45
2023-04-02T15:57:15.050Z,27.15
2023-04-02T16:00:10.077Z,20.92
2023-04-02T16:02:55.304Z,11.43
2023-04-02T16:08:07.342Z,5.45
2023-04-02T16:10:42.077Z,4.30
2023-04-02T16:13:28.542Z,4.00
2023-04-02T16:16:22.775Z,4.03
2023-04-02T16:19:26.137Z,4.60
2023-04-02T16:22:02.731Z,4.53
2023-04-02T16:24:29.791Z,4.22
2023-04-02T16:27:16.893Z,4.38
2023-04-02T16:30:27.104Z,4.28
2023-04-02T16:33:09.916Z,3.90
2023-04-02T16:36:01.390Z,4.40
2023-04-02T16:38:44.165Z,4.10
2023-04-02T16:41:27.855Z,3.50
2023-04-02T16:44:23.235Z,3.70
2023-04-02T16:47:11.720Z,3.67
2023-04-02T16:49:58.636Z,3.33
2023-04-02T16:52:37.408Z,3.33
2023-04-02T16:55:16.541Z,3.40
2023-04-02T16:57:55.489Z,3.30
2023-04-02T17:00:25.080Z,3.10
2023-04-02T17:03:35.715Z,3.20
2023-04-02T17:06:06.507Z,3.10
2023-04-02T17:08:42.495Z,3.30
2023-04-02T17:11:21.498Z,2.88
2023-04-02T17:14:20.221Z,3.13
2023-04-02T17:16:51.768Z,3.20
2023-04-02T17:19:19.386Z,2.85
2023-04-02T17:21:48.812Z,2.92
2023-04-02T17:24:42.979Z,3.30
2023-04-02T17:27:38.630Z,3.10
2023-04-02T17:30:16.431Z,3.40
2023-04-02T17:32:43.303Z,3.20
2023-04-02T17:35:27.764Z,3.55
2023-04-02T17:38:37.645Z,3.60
2023-04-02T17:41:16.726Z,3.50
2023-04-02T17:43:51.823Z,3.60
2023-04-02T17:46:55.939Z,3.35
2023-04-02T17:49:41.274Z,3.60
2023-04-02T17:52:11.024Z,3.25
2023-04-02T17:54:47.701Z,3.30
2023-04-02T17:57:36.310Z,3.17
2023-04-02T18:00:21.412Z,3.50
2023-04-02T18:05:46.180Z,3.20
2023-04-02T18:08:18.695Z,3.15
2023-04-02T18:10:45.368Z,2.75
2023-04-02T18:13:24.500Z,3.00
2023-04-02T18:16:03.169Z,2.83
2023-04-02T18:18:49.946Z,3.00
2023-04-02T18:21:37.917Z,2.75
2023-04-02T18:24:26.037Z,2.80
2023-04-02T18:27:05.072Z,3.00
2023-04-02T18:29:55.293Z,2.63
2023-04-02T18:32:34.681Z,2.90
2023-04-02T18:35:14.061Z,2.70
2023-04-02T18:37:49.598Z,2.65
2023-04-02T18:40:31.803Z,2.95
2023-04-02T18:43:06.630Z,3.35
2023-04-02T18:45:56.624Z,2.78
2023-04-02T18:48:29.148Z,2.97
2023-04-02T18:50:56.366Z,3.30
2023-04-02T18:53:25.345Z,3.25
2023-04-02T18:55:55.984Z,3.47
2023-04-02T18:58:30.243Z,3.67
2023-04-02T19:00:58.666Z,3.35
2023-04-02T19:03:29.543Z,3.20
2023-04-02T19:05:56.353Z,3.90
2023-04-02T19:08:31.849Z,3.67
2023-04-02T19:11:29.732Z,3.90
2023-04-02T19:14:12.272Z,3.88
2023-04-02T19:16:48.347Z,3.60
2023-04-02T19:19:23.357Z,4.13
2023-04-02T19:22:04.736Z,4.35
2023-04-02T19:25:15.230Z,4.22
2023-04-02T19:28:00.114Z,4.00
2023-04-02T19:30:45.892Z,4.22
2023-04-02T19:33:19.688Z,3.88
2023-04-02T19:36:19.441Z,3.60
2023-04-02T19:39:00.225Z,3.67
2023-04-02T19:41:52.005Z,3.45
2023-04-02T19:44:19.124Z,3.67
2023-04-02T19:46:46.525Z,3.67
2023-04-02T19:49:33.794Z,3.63
2023-04-02T19:52:00.764Z,3.70
2023-04-02T19:54:27.576Z,3.30
2023-04-02T19:56:54.465Z,3.58
2023-04-02T19:59:21.391Z,3.58
2023-04-02T20:01:48.187Z,3.25
2023-04-02T20:04:15.413Z,3.15
2023-04-02T20:06:43.207Z,3.22
2023-04-02T20:09:10.097Z,3.38
2023-04-02T20:11:37.930Z,3.28
2023-04-02T20:14:05.431Z,3.35
2023-04-02T20:16:32.917Z,3.40
2023-04-02T20:18:59.994Z,3.30
2023-04-02T20:21:27.547Z,3.30
2023-04-02T20:23:55.138Z,3.53
2023-04-02T20:26:22.606Z,3.33
2023-04-02T20:28:49.465Z,3.28
2023-04-02T20:31:17.713Z,3.60
2023-04-02T20:33:44.818Z,3.65
2023-04-02T20:36:16.784Z,3.70
2023-04-02T20:38:45.385Z,3.20
2023-04-02T20:41:12.251Z,3.50
2023-04-02T20:43:40.721Z,3.38
2023-04-02T20:46:10.053Z,3.50
2023-04-02T20:48:37.910Z,3.25
2023-04-02T20:51:06.463Z,3.35
2023-04-02T20:53:35.211Z,3.65
2023-04-02T20:56:12.776Z,3.40
2023-04-02T20:58:40.607Z,3.05
2023-04-02T21:01:09.252Z,3.40
2023-04-02T21:03:36.184Z,2.97
2023-04-02T21:06:03.230Z,2.85
2023-04-02T21:08:30.060Z,3.30
2023-04-02T21:11:04.636Z,3.17
2023-04-02T21:13:32.950Z,2.95
2023-04-02T21:16:00.155Z,2.90
2023-04-02T21:18:26.998Z,2.83
2023-04-02T21:21:02.789Z,2.78
2023-04-02T21:23:29.931Z,3.05
2023-04-02T21:26:02.974Z,2.80
2023-04-02T21:28:29.802Z,3.00
2023-04-02T21:31:13.164Z,2.88
2023-04-02T21:33:41.845Z,2.90
2023-04-02T21:36:17.441Z,2.50
2023-04-02T21:38:46.302Z,2.85
2023-04-02T21:41:19.457Z,2.70
2023-04-02T21:43:48.261Z,2.80
2023-04-02T21:46:16.849Z,2.45
2023-04-02T21:48:44.087Z,2.60
2023-04-02T21:51:15.378Z,3.10
2023-04-02T21:53:42.801Z,2.63
2023-04-02T21:56:21.112Z,2.55
2023-04-02T21:58:47.929Z,2.88
2023-04-02T22:01:26.494Z,2.70
2023-04-02T22:03:56.127Z,2.55
2023-04-02T22:06:24.080Z,2.70
2023-04-02T22:08:56.853Z,2.65
2023-04-02T22:11:29.260Z,2.30
2023-04-02T22:13:56.317Z,2.42
2023-04-02T22:16:26.253Z,2.20
2023-04-02T22:18:54.586Z,2.55
2023-04-02T22:21:22.052Z,2.40
2023-04-02T22:23:49.344Z,2.78
2023-04-02T22:26:17.336Z,3.05
2023-04-02T22:28:44.539Z,2.30
2023-04-02T22:31:16.787Z,2.55
2023-04-02T22:33:44.683Z,2.50
2023-04-02T22:36:12.080Z,2.72
2023-04-02T22:38:39.259Z,2.83
2023-04-02T22:41:14.813Z,2.75
2023-04-02T22:43:43.961Z,2.60
2023-04-02T22:46:13.081Z,2.70
2023-04-02T22:48:39.975Z,2.40
2023-04-02T22:51:07.967Z,2.65
2023-04-02T22:53:36.519Z,2.58
2023-04-02T22:56:09.935Z,2.40
2023-04-02T22:58:37.445Z,2.22
2023-04-02T23:01:10.103Z,2.72
2023-04-02T23:03:37.074Z,2.90
2023-04-02T23:06:07.350Z,2.65
2023-04-02T23:08:35.216Z,2.80
2023-04-02T23:11:04.556Z,3.03
2023-04-02T23:13:31.445Z,2.72
2023-04-02T23:15:58.291Z,2.78
2023-04-02T23:18:25.022Z,2.55
2023-04-02T23:20:51.737Z,2.50
2023-04-02T23:23:18.522Z,2.80
2023-04-02T23:25:45.351Z,2.90
2023-04-02T23:28:13.397Z,2.83
2023-04-02T23:30:44.122Z,2.90
2023-04-02T23:33:10.955Z,2.35
2023-04-02T23:35:37.748Z,2.33
2023-04-02T23:38:04.501Z,2.83
2023-04-02T23:40:31.330Z,2.47
2023-04-02T23:42:58.115Z,2.47
2023-04-02T23:45:24.911Z,2.63
2023-04-02T23:47:51.700Z,2.63
2023-04-02T23:50:18.545Z,2.67
2023-04-02T23:52:45.444Z,2.70
2023-04-02T23:55:13.117Z,2.90
2023-04-02T23:57:40.255Z,2.40
